createdAt,value
2019-06-08T00:00:37.300Z,0.00
2019-06-08T00:01:37.313Z,0.00
2019-06-08T00:02:37.309Z,0.00
2019-06-08T00:03:37.324Z,0.00
2019-06-08T00:04:37.331Z,0.00
2019-06-08T00:05:37.347Z,0.00
2019-06-08T00:06:37.358Z,0.00
2019-06-08T00:07:37.360Z,0.00
2019-06-08T00:08:37.365Z,0.00
2019-06-08T00:09:37.384Z,0.00
2019-06-08T00:10:37.387Z,0.00
2019-06-08T00:11:37.399Z,0.00
2019-06-08T00:12:37.416Z,0.00
2019-06-08T00:13:37.414Z,0.00
2019-06-08T00:14:37.416Z,0.00
2019-06-08T00:15:37.432Z,0.00
2019-06-08T00:16:37.438Z,0.00
2019-06-08T00:17:39.131Z,0.00
2019-06-08T00:18:37.467Z,0.00
2019-06-08T00:19:37.467Z,0.00
2019-06-08T00:20:37.474Z,0.00
2019-06-08T00:21:37.476Z,0.00
2019-06-08T00:22:37.488Z,0.00
2019-06-08T00:23:37.498Z,0.00
2019-06-08T00:24:37.510Z,0.00
2019-06-08T00:25:37.513Z,0.00
2019-06-08T00:26:37.529Z,0.00
2019-06-08T00:27:37.527Z,0.00
2019-06-08T00:28:37.546Z,0.00
2019-06-08T00:29:37.554Z,0.00
2019-06-08T00:30:37.556Z,0.00
2019-06-08T00:31:37.562Z,0.00
2019-06-08T00:32:37.582Z,0.00
2019-06-08T00:33:37.589Z,0.00
2019-06-08T00:34:37.593Z,0.00
2019-06-08T00:35:37.602Z,0.00
2019-06-08T00:36:37.611Z,0.00
2019-06-08T00:37:37.617Z,0.00
2019-06-08T00:38:37.626Z,0.00
2019-06-08T00:39:37.638Z,0.00
2019-06-08T00:40:37.657Z,0.00
2019-06-08T00:41:37.653Z,0.00
2019-06-08T00:42:37.664Z,0.00
2019-06-08T00:43:37.672Z,0.00
2019-06-08T00:44:37.706Z,0.00
2019-06-08T00:45:37.687Z,0.00
2019-06-08T00:46:37.711Z,0.00
2019-06-08T00:47:47.648Z,0.00
2019-06-08T00:48:37.712Z,0.00
2019-06-08T00:49:37.721Z,0.00
2019-06-08T00:50:37.746Z,0.00
2019-06-08T00:51:37.755Z,0.00
2019-06-08T00:52:37.748Z,0.00
2019-06-08T00:53:37.760Z,0.00
2019-06-08T00:54:37.766Z,0.00
2019-06-08T00:55:37.777Z,0.00
2019-06-08T00:56:37.782Z,0.00
2019-06-08T00:57:37.794Z,0.00
2019-06-08T00:58:37.805Z,0.00
2019-06-08T00:59:37.823Z,0.00
2019-06-08T01:00:37.835Z,0.00
2019-06-08T01:01:37.825Z,0.00
2019-06-08T01:02:37.846Z,0.00
2019-06-08T01:03:37.841Z,0.00
2019-06-08T01:04:37.862Z,0.00
2019-06-08T01:05:37.868Z,0.00
2019-06-08T01:06:37.878Z,0.00
2019-06-08T01:07:37.908Z,0.00
2019-06-08T01:08:37.887Z,0.00
2019-06-08T01:09:37.897Z,0.00
2019-06-08T01:10:37.900Z,0.00
2019-06-08T01:11:37.914Z,0.00
2019-06-08T01:12:38.061Z,0.00
2019-06-08T01:13:37.929Z,0.00
2019-06-08T01:14:37.929Z,0.00
2019-06-08T01:15:37.947Z,0.00
2019-06-08T01:16:37.971Z,0.00
2019-06-08T01:17:37.957Z,0.00
2019-06-08T01:18:37.971Z,0.00
2019-06-08T01:19:37.992Z,0.00
2019-06-08T01:20:37.989Z,0.00
2019-06-08T01:21:38.011Z,0.00
2019-06-08T01:22:38.010Z,0.00
2019-06-08T01:23:38.020Z,0.00
2019-06-08T01:24:38.035Z,0.00
2019-06-08T01:25:38.034Z,0.00
2019-06-08T01:26:38.048Z,0.00
2019-06-08T01:27:38.049Z,0.00
2019-06-08T01:28:38.060Z,0.00
2019-06-08T01:29:38.065Z,0.00
2019-06-08T01:30:38.067Z,0.00
2019-06-08T01:31:38.084Z,0.00
2019-06-08T01:32:38.088Z,0.00
2019-06-08T01:33:38.099Z,0.00
2019-06-08T01:34:38.107Z,0.00
2019-06-08T01:35:38.113Z,0.00
2019-06-08T01:36:38.125Z,0.00
2019-06-08T01:37:38.129Z,0.00
2019-06-08T01:38:38.134Z,0.00
2019-06-08T01:39:38.142Z,0.00
2019-06-08T01:40:38.164Z,0.00
2019-06-08T01:41:38.162Z,0.00
2019-06-08T01:42:38.177Z,0.00
2019-06-08T01:43:38.182Z,0.00
2019-06-08T01:44:38.192Z,0.00
2019-06-08T01:45:38.195Z,0.00
2019-06-08T01:46:38.212Z,0.00
2019-06-08T01:47:38.223Z,0.00
2019-06-08T01:48:38.231Z,0.00
2019-06-08T01:49:38.239Z,0.00
2019-06-08T01:50:38.247Z,0.00
2019-06-08T01:51:38.251Z,0.00
2019-06-08T01:52:38.258Z,0.00
2019-06-08T01:53:38.263Z,0.00
2019-06-08T01:54:38.272Z,0.00
2019-06-08T01:55:38.313Z,0.00
2019-06-08T01:56:38.305Z,0.00
2019-06-08T01:57:38.304Z,0.00
2019-06-08T01:58:38.308Z,0.00
2019-06-08T01:59:38.313Z,0.00
2019-06-08T02:00:41.369Z,0.00
2019-06-08T02:01:38.332Z,0.00
2019-06-08T02:02:38.405Z,0.00
2019-06-08T02:03:38.352Z,0.00
2019-06-08T02:04:38.357Z,0.00
2019-06-08T02:05:38.366Z,0.00
2019-06-08T02:06:38.378Z,0.00
2019-06-08T02:07:38.448Z,0.00
2019-06-08T02:08:38.395Z,0.00
2019-06-08T02:09:38.403Z,0.00
2019-06-08T02:10:38.401Z,0.00
2019-06-08T02:11:38.415Z,0.00
2019-06-08T02:12:38.424Z,0.00
2019-06-08T02:13:38.440Z,0.00
2019-06-08T02:14:38.435Z,0.00
2019-06-08T02:15:38.447Z,0.00
2019-06-08T02:16:38.455Z,0.00
2019-06-08T02:17:38.463Z,0.00
2019-06-08T02:18:49.047Z,0.00
2019-06-08T02:19:38.806Z,0.00
2019-06-08T02:20:39.370Z,0.00
2019-06-08T02:21:39.053Z,0.00
2019-06-08T02:22:39.401Z,0.00
2019-06-08T02:23:39.697Z,0.00
2019-06-08T02:24:39.604Z,0.00
2019-06-08T02:25:39.579Z,0.00
2019-06-08T02:26:39.621Z,0.00
2019-06-08T02:27:39.656Z,0.00
2019-06-08T02:28:38.561Z,0.00
2019-06-08T02:29:39.903Z,0.00
2019-06-08T02:30:41.168Z,0.00
2019-06-08T02:31:38.579Z,0.00
2019-06-08T02:32:38.597Z,0.00
2019-06-08T02:33:38.602Z,0.00
2019-06-08T02:34:38.619Z,0.00
2019-06-08T02:35:38.619Z,0.00
2019-06-08T02:36:38.618Z,0.00
2019-06-08T02:37:39.878Z,0.00
2019-06-08T02:38:39.616Z,0.00
2019-06-08T02:39:39.981Z,0.00
2019-06-08T02:40:40.204Z,0.00
2019-06-08T02:41:39.954Z,0.00
2019-06-08T02:42:40.110Z,0.00
2019-06-08T02:43:40.309Z,0.00
2019-06-08T02:44:40.509Z,0.00
2019-06-08T02:45:40.373Z,0.00
2019-06-08T02:46:40.403Z,0.00
2019-06-08T02:47:40.874Z,0.00
2019-06-08T02:49:00.283Z,0.00
2019-06-08T02:49:39.727Z,0.00
2019-06-08T02:50:39.022Z,0.00
2019-06-08T02:51:38.757Z,0.00
2019-06-08T02:52:40.614Z,0.00
2019-06-08T02:53:38.773Z,0.00
2019-06-08T02:54:39.810Z,0.00
2019-06-08T02:55:39.454Z,0.00
2019-06-08T02:56:41.000Z,0.00
2019-06-08T02:57:39.936Z,0.00
2019-06-08T02:58:40.756Z,0.00
2019-06-08T02:59:40.846Z,0.00
2019-06-08T03:00:39.547Z,0.00
2019-06-08T03:01:40.621Z,0.00
2019-06-08T03:02:40.452Z,0.00
2019-06-08T03:03:40.277Z,0.00
2019-06-08T03:04:41.107Z,0.00
2019-06-08T03:05:40.458Z,0.00
2019-06-08T03:06:41.176Z,0.00
2019-06-08T03:07:39.536Z,0.00
2019-06-08T03:08:41.278Z,0.00
2019-06-08T03:09:40.843Z,0.00
2019-06-08T03:10:39.361Z,0.00
2019-06-08T03:11:39.252Z,0.00
2019-06-08T03:12:40.325Z,0.00
2019-06-08T03:13:40.349Z,0.00
2019-06-08T03:14:39.705Z,0.00
2019-06-08T03:15:40.913Z,0.00
2019-06-08T03:16:41.121Z,0.00
2019-06-08T03:17:40.191Z,0.00
2019-06-08T03:18:40.249Z,0.00
2019-06-08T03:19:40.092Z,0.00
2019-06-08T03:20:40.090Z,0.00
2019-06-08T03:21:40.606Z,0.00
2019-06-08T03:22:41.904Z,0.00
2019-06-08T03:23:40.997Z,0.00
2019-06-08T03:24:39.032Z,0.00
2019-06-08T03:25:47.267Z,0.00
2019-06-08T03:26:41.303Z,5.63
2019-06-08T03:27:40.645Z,5.63
2019-06-08T03:28:39.994Z,5.63
2019-06-08T03:29:41.271Z,5.63
2019-06-08T03:30:51.475Z,0.00
2019-06-08T03:31:46.157Z,0.00
2019-06-08T03:32:49.664Z,0.00
2019-06-08T03:33:49.184Z,0.00
2019-06-08T03:34:46.797Z,0.00
2019-06-08T03:35:50.998Z,5.63
2019-06-08T03:36:46.350Z,5.63
2019-06-08T03:37:40.080Z,5.63
2019-06-08T03:38:40.203Z,5.63
2019-06-08T03:39:41.189Z,5.63
2019-06-08T03:40:40.624Z,5.63
2019-06-08T03:41:40.416Z,5.63
2019-06-08T03:42:39.182Z,5.63
2019-06-08T03:43:40.750Z,5.63
2019-06-08T03:44:40.461Z,5.63
2019-06-08T03:45:40.786Z,5.63
2019-06-08T03:46:40.948Z,11.25
2019-06-08T03:47:41.330Z,11.25
2019-06-08T03:48:40.099Z,11.25
2019-06-08T03:49:50.355Z,11.25
2019-06-08T03:50:40.185Z,16.88
2019-06-08T03:51:43.582Z,16.88
2019-06-08T03:52:39.948Z,16.88
2019-06-08T03:53:40.055Z,11.25
2019-06-08T03:54:41.099Z,11.25
2019-06-08T03:55:40.497Z,5.63
2019-06-08T03:56:40.162Z,5.63
2019-06-08T03:57:40.464Z,5.63
2019-06-08T03:58:40.581Z,5.63
2019-06-08T03:59:41.053Z,5.63
2019-06-08T04:00:40.414Z,5.63
2019-06-08T04:01:39.766Z,11.25
2019-06-08T04:02:39.880Z,11.25
2019-06-08T04:03:39.943Z,11.25
2019-06-08T04:04:40.237Z,11.25
2019-06-08T04:05:40.761Z,16.88
2019-06-08T04:06:39.863Z,16.88
2019-06-08T04:07:39.830Z,16.88
2019-06-08T04:08:40.820Z,16.88
2019-06-08T04:09:39.787Z,16.88
2019-06-08T04:10:39.891Z,16.88
2019-06-08T04:11:40.178Z,16.88
2019-06-08T04:12:40.012Z,11.25
2019-06-08T04:13:39.914Z,11.25
2019-06-08T04:14:39.850Z,16.88
2019-06-08T04:15:40.409Z,16.88
2019-06-08T04:16:40.157Z,16.88
2019-06-08T04:17:39.846Z,16.88
2019-06-08T04:18:40.278Z,16.88
2019-06-08T04:19:39.851Z,16.88
2019-06-08T04:20:40.322Z,16.88
2019-06-08T04:21:40.268Z,11.25
2019-06-08T04:22:40.367Z,11.25
2019-06-08T04:23:40.538Z,11.25
2019-06-08T04:24:40.139Z,11.25
2019-06-08T04:25:40.633Z,11.25
2019-06-08T04:26:40.593Z,11.25
2019-06-08T04:27:40.465Z,11.25
2019-06-08T04:28:40.567Z,11.25
2019-06-08T04:29:39.687Z,11.25
2019-06-08T04:30:41.063Z,11.25
2019-06-08T04:31:39.723Z,11.25
2019-06-08T04:32:40.703Z,11.25
2019-06-08T04:33:40.365Z,11.25
2019-06-08T04:34:40.993Z,11.25
2019-06-08T04:35:40.240Z,11.25
2019-06-08T04:36:41.276Z,11.25
2019-06-08T04:37:40.531Z,11.25
2019-06-08T04:38:41.225Z,11.25
2019-06-08T04:39:40.237Z,11.25
2019-06-08T04:40:41.474Z,16.88
2019-06-08T04:41:40.684Z,16.88
2019-06-08T04:42:41.557Z,16.88
2019-06-08T04:43:40.394Z,16.88
2019-06-08T04:44:40.479Z,16.88
2019-06-08T04:45:41.153Z,16.88
2019-06-08T04:46:40.751Z,16.88
2019-06-08T04:47:41.013Z,16.88
2019-06-08T04:48:40.613Z,16.88
2019-06-08T04:49:40.056Z,16.88
2019-06-08T04:50:40.876Z,16.88
2019-06-08T04:51:40.747Z,16.88
2019-06-08T04:52:40.848Z,22.50
2019-06-08T04:53:40.904Z,28.13
2019-06-08T04:54:40.778Z,33.75
2019-06-08T04:55:40.960Z,28.13
2019-06-08T04:56:40.917Z,28.13
2019-06-08T04:58:41.622Z,33.75
2019-06-08T04:59:41.260Z,33.75
2019-06-08T05:00:41.431Z,33.75
2019-06-08T05:01:40.853Z,28.13
2019-06-08T05:02:41.607Z,33.75
2019-06-08T05:03:41.316Z,33.75
2019-06-08T05:04:41.020Z,28.13
2019-06-08T05:05:41.066Z,28.13
2019-06-08T05:06:41.024Z,33.75
2019-06-08T05:07:41.527Z,39.38
2019-06-08T05:08:40.958Z,39.38
2019-06-08T05:09:41.122Z,45.00
2019-06-08T05:10:41.262Z,45.00
2019-06-08T05:11:41.069Z,50.63
2019-06-08T05:12:41.274Z,56.25
2019-06-08T05:13:41.158Z,67.50
2019-06-08T05:14:41.039Z,73.13
2019-06-08T05:15:41.385Z,67.50
2019-06-08T05:16:41.218Z,61.88
2019-06-08T05:17:41.343Z,45.00
2019-06-08T05:18:41.287Z,39.38
2019-06-08T05:19:41.121Z,33.75
2019-06-08T05:20:43.003Z,28.13
2019-06-08T05:21:41.444Z,28.13
2019-06-08T05:22:41.320Z,33.75
2019-06-08T05:23:41.249Z,39.38
2019-06-08T05:24:41.301Z,45.00
2019-06-08T05:25:41.199Z,45.00
2019-06-08T05:26:41.384Z,39.38
2019-06-08T05:27:41.120Z,39.38
2019-06-08T05:28:41.227Z,33.75
2019-06-08T05:29:41.240Z,33.75
2019-06-08T05:30:41.285Z,39.38
2019-06-08T05:31:41.417Z,45.00
2019-06-08T05:32:41.328Z,39.38
2019-06-08T05:33:41.284Z,39.38
2019-06-08T05:34:41.186Z,45.00
2019-06-08T05:35:41.286Z,39.38
2019-06-08T05:36:41.328Z,39.38
2019-06-08T05:37:41.406Z,39.38
2019-06-08T05:38:41.541Z,45.00
2019-06-08T05:39:41.400Z,45.00
2019-06-08T05:40:41.468Z,45.00
2019-06-08T05:41:41.346Z,45.00
2019-06-08T05:42:42.074Z,50.63
2019-06-08T05:43:41.526Z,56.25
2019-06-08T05:44:41.527Z,56.25
2019-06-08T05:45:41.445Z,61.88
2019-06-08T05:46:41.587Z,67.50
2019-06-08T05:47:41.711Z,67.50
2019-06-08T05:48:41.839Z,73.13
2019-06-08T05:49:41.409Z,73.13
2019-06-08T05:50:54.578Z,67.50
2019-06-08T05:51:41.424Z,67.50
2019-06-08T05:52:40.260Z,73.13
2019-06-08T05:53:40.266Z,67.50
2019-06-08T05:54:40.277Z,61.88
2019-06-08T05:55:40.282Z,67.50
2019-06-08T05:56:40.309Z,61.88
2019-06-08T05:57:40.299Z,61.88
2019-06-08T05:58:40.309Z,67.50
2019-06-08T05:59:40.317Z,78.75
2019-06-08T06:00:40.319Z,106.88
2019-06-08T06:01:40.464Z,112.50
2019-06-08T06:02:40.344Z,101.25
2019-06-08T06:03:40.392Z,95.63
2019-06-08T06:04:40.885Z,90.00
2019-06-08T06:05:40.358Z,78.75
2019-06-08T06:06:40.471Z,73.13
2019-06-08T06:07:40.597Z,67.50
2019-06-08T06:08:40.407Z,67.50
2019-06-08T06:09:41.134Z,67.50
2019-06-08T06:10:40.716Z,73.13
2019-06-08T06:11:40.659Z,73.13
2019-06-08T06:12:40.928Z,73.13
2019-06-08T06:13:40.621Z,67.50
2019-06-08T06:14:40.699Z,67.50
2019-06-08T06:15:40.993Z,67.50
2019-06-08T06:16:40.863Z,73.13
2019-06-08T06:17:40.932Z,78.75
2019-06-08T06:18:40.956Z,84.38
2019-06-08T06:19:41.060Z,84.38
2019-06-08T06:20:40.989Z,84.38
2019-06-08T06:21:40.978Z,84.38
2019-06-08T06:22:41.944Z,90.00
2019-06-08T06:23:41.161Z,84.38
2019-06-08T06:24:41.734Z,90.00
2019-06-08T06:25:41.404Z,84.38
2019-06-08T06:26:41.271Z,78.75
2019-06-08T06:27:41.346Z,67.50
2019-06-08T06:28:41.353Z,73.13
2019-06-08T06:29:41.394Z,73.13
2019-06-08T06:30:41.567Z,78.75
2019-06-08T06:31:41.572Z,78.75
2019-06-08T06:32:41.734Z,78.75
2019-06-08T06:33:41.844Z,78.75
2019-06-08T06:34:41.954Z,73.13
2019-06-08T06:35:41.644Z,73.13
2019-06-08T06:36:41.704Z,73.13
2019-06-08T06:37:41.801Z,73.13
2019-06-08T06:38:41.895Z,73.13
2019-06-08T06:39:41.937Z,67.50
2019-06-08T06:40:41.869Z,67.50
2019-06-08T06:41:41.851Z,67.50
2019-06-08T06:42:42.024Z,67.50
2019-06-08T06:43:42.113Z,67.50
2019-06-08T06:44:42.021Z,67.50
2019-06-08T06:45:41.801Z,73.13
2019-06-08T06:46:41.842Z,67.50
2019-06-08T06:47:42.105Z,67.50
2019-06-08T06:48:41.993Z,61.88
2019-06-08T06:49:42.284Z,61.88
2019-06-08T06:50:40.734Z,61.88
2019-06-08T06:51:40.742Z,61.88
2019-06-08T06:52:40.753Z,61.88
2019-06-08T06:53:40.762Z,61.88
2019-06-08T06:54:40.770Z,67.50
2019-06-08T06:55:40.779Z,73.13
2019-06-08T06:56:40.797Z,73.13
2019-06-08T06:57:40.902Z,73.13
2019-06-08T06:58:40.802Z,78.75
2019-06-08T06:59:40.815Z,78.75
2019-06-08T07:00:40.841Z,84.38
2019-06-08T07:01:40.838Z,84.38
2019-06-08T07:02:40.839Z,84.38
2019-06-08T07:03:40.842Z,84.38
2019-06-08T07:04:40.852Z,84.38
2019-06-08T07:05:40.852Z,90.00
2019-06-08T07:06:40.876Z,90.00
2019-06-08T07:07:40.875Z,84.38
2019-06-08T07:08:42.059Z,84.38
2019-06-08T07:09:40.902Z,90.00
2019-06-08T07:10:40.903Z,95.63
2019-06-08T07:11:40.911Z,95.63
2019-06-08T07:12:40.934Z,90.00
2019-06-08T07:13:40.930Z,90.00
2019-06-08T07:14:40.934Z,90.00
2019-06-08T07:15:41.891Z,90.00
2019-06-08T07:16:40.962Z,95.63
2019-06-08T07:17:40.954Z,95.63
2019-06-08T07:18:40.967Z,95.63
2019-06-08T07:19:40.976Z,101.25
2019-06-08T07:20:40.981Z,95.63
2019-06-08T07:21:42.164Z,101.25
2019-06-08T07:22:40.994Z,101.25
2019-06-08T07:23:41.007Z,101.25
2019-06-08T07:24:41.013Z,106.88
2019-06-08T07:25:41.025Z,101.25
2019-06-08T07:26:41.043Z,95.63
2019-06-08T07:27:41.040Z,101.25
2019-06-08T07:28:41.046Z,106.88
2019-06-08T07:29:41.056Z,112.50
2019-06-08T07:30:41.070Z,123.75
2019-06-08T07:31:41.067Z,135.00
2019-06-08T07:32:41.082Z,140.63
2019-06-08T07:33:41.086Z,151.88
2019-06-08T07:34:41.295Z,157.50
2019-06-08T07:35:41.102Z,174.38
2019-06-08T07:36:41.120Z,185.63
2019-06-08T07:37:41.118Z,196.88
2019-06-08T07:38:41.127Z,208.13
2019-06-08T07:39:41.139Z,225.00
2019-06-08T07:40:43.255Z,219.38
2019-06-08T07:41:41.155Z,208.13
2019-06-08T07:42:41.169Z,208.13
2019-06-08T07:43:41.174Z,202.50
2019-06-08T07:44:41.179Z,202.50
2019-06-08T07:45:41.199Z,196.88
2019-06-08T07:46:41.202Z,180.00
2019-06-08T07:47:41.226Z,168.75
2019-06-08T07:48:41.218Z,180.00
2019-06-08T07:49:41.228Z,208.13
2019-06-08T07:50:41.235Z,213.75
2019-06-08T07:51:57.304Z,219.38
2019-06-08T07:52:41.756Z,236.25
2019-06-08T07:53:41.254Z,247.50
2019-06-08T07:54:41.758Z,236.25
2019-06-08T07:55:41.270Z,236.25
2019-06-08T07:56:41.567Z,225.00
2019-06-08T07:57:41.290Z,202.50
2019-06-08T07:58:41.843Z,191.25
2019-06-08T07:59:41.314Z,180.00
2019-06-08T08:00:41.319Z,180.00
2019-06-08T08:01:41.335Z,196.88
2019-06-08T08:02:41.329Z,180.00
2019-06-08T08:03:41.347Z,151.88
2019-06-08T08:04:41.354Z,146.25
2019-06-08T08:05:41.361Z,163.13
2019-06-08T08:06:41.364Z,174.38
2019-06-08T08:07:41.390Z,185.63
2019-06-08T08:08:41.399Z,196.88
2019-06-08T08:09:41.410Z,180.00
2019-06-08T08:10:41.419Z,168.75
2019-06-08T08:11:41.434Z,157.50
2019-06-08T08:12:41.421Z,151.88
2019-06-08T08:13:41.431Z,146.25
2019-06-08T08:14:41.444Z,140.63
2019-06-08T08:15:41.446Z,146.25
2019-06-08T08:16:41.458Z,151.88
2019-06-08T08:17:41.490Z,174.38
2019-06-08T08:18:41.472Z,208.13
2019-06-08T08:19:41.492Z,191.25
2019-06-08T08:20:41.491Z,180.00
2019-06-08T08:21:41.503Z,180.00
2019-06-08T08:22:41.500Z,174.38
2019-06-08T08:23:41.513Z,157.50
2019-06-08T08:24:41.609Z,140.63
2019-06-08T08:25:41.534Z,140.63
2019-06-08T08:26:41.720Z,140.63
2019-06-08T08:27:41.554Z,135.00
2019-06-08T08:28:41.562Z,129.38
2019-06-08T08:29:41.596Z,123.75
2019-06-08T08:30:41.576Z,118.13
2019-06-08T08:31:41.583Z,106.88
2019-06-08T08:32:41.657Z,95.63
2019-06-08T08:33:41.597Z,95.63
2019-06-08T08:34:42.307Z,106.88
2019-06-08T08:35:41.621Z,106.88
2019-06-08T08:36:41.625Z,112.50
2019-06-08T08:37:41.621Z,118.13
2019-06-08T08:38:41.644Z,135.00
2019-06-08T08:39:41.667Z,140.63
2019-06-08T08:40:41.669Z,135.00
2019-06-08T08:41:41.674Z,135.00
2019-06-08T08:42:41.675Z,146.25
2019-06-08T08:43:41.683Z,146.25
2019-06-08T08:44:41.687Z,151.88
2019-06-08T08:45:41.699Z,157.50
2019-06-08T08:46:41.705Z,151.88
2019-06-08T08:47:41.734Z,151.88
2019-06-08T08:48:41.720Z,157.50
2019-06-08T08:49:41.743Z,174.38
2019-06-08T08:50:41.739Z,163.13
2019-06-08T08:51:41.747Z,163.13
2019-06-08T08:52:41.768Z,151.88
2019-06-08T08:53:41.763Z,146.25
2019-06-08T08:54:42.828Z,135.00
2019-06-08T08:55:41.786Z,123.75
2019-06-08T08:56:41.801Z,123.75
2019-06-08T08:57:41.846Z,135.00
2019-06-08T08:58:41.822Z,135.00
2019-06-08T08:59:41.818Z,140.63
2019-06-08T09:00:41.827Z,146.25
2019-06-08T09:01:41.827Z,168.75
2019-06-08T09:02:41.839Z,180.00
2019-06-08T09:03:41.878Z,168.75
2019-06-08T09:04:42.781Z,140.63
2019-06-08T09:05:41.865Z,140.63
2019-06-08T09:06:41.894Z,163.13
2019-06-08T09:07:41.930Z,174.38
2019-06-08T09:08:41.897Z,185.63
2019-06-08T09:09:41.905Z,191.25
2019-06-08T09:10:41.902Z,185.63
2019-06-08T09:11:41.918Z,180.00
2019-06-08T09:12:41.930Z,180.00
2019-06-08T09:13:41.932Z,174.38
2019-06-08T09:14:42.000Z,163.13
2019-06-08T09:15:41.950Z,163.13
2019-06-08T09:16:41.977Z,174.38
2019-06-08T09:17:41.984Z,168.75
2019-06-08T09:18:41.988Z,180.00
2019-06-08T09:19:41.987Z,202.50
2019-06-08T09:20:42.015Z,219.38
2019-06-08T09:21:42.024Z,258.75
2019-06-08T09:22:53.755Z,281.25
2019-06-08T09:23:42.037Z,303.75
2019-06-08T09:24:42.041Z,281.25
2019-06-08T09:25:42.034Z,281.25
2019-06-08T09:26:42.058Z,309.38
2019-06-08T09:27:42.080Z,331.88
2019-06-08T09:28:42.057Z,326.25
2019-06-08T09:29:42.076Z,315.00
2019-06-08T09:30:42.080Z,320.63
2019-06-08T09:31:42.100Z,309.38
2019-06-08T09:32:42.111Z,286.88
2019-06-08T09:33:42.113Z,275.63
2019-06-08T09:34:42.144Z,286.88
2019-06-08T09:35:42.137Z,281.25
2019-06-08T09:36:42.140Z,258.75
2019-06-08T09:37:42.153Z,258.75
2019-06-08T09:38:42.167Z,264.38
2019-06-08T09:39:42.160Z,275.63
2019-06-08T09:40:42.172Z,286.88
2019-06-08T09:41:42.195Z,275.63
2019-06-08T09:42:42.196Z,258.75
2019-06-08T09:43:42.204Z,258.75
2019-06-08T09:44:42.220Z,270.00
2019-06-08T09:45:42.229Z,292.50
2019-06-08T09:46:42.231Z,298.13
2019-06-08T09:47:42.248Z,343.13
2019-06-08T09:48:42.260Z,399.38
2019-06-08T09:49:42.275Z,478.13
2019-06-08T09:50:42.312Z,506.25
2019-06-08T09:51:42.281Z,528.75
2019-06-08T09:52:42.285Z,596.25
2019-06-08T09:53:42.302Z,680.63
2019-06-08T09:54:42.302Z,753.75
2019-06-08T09:55:42.307Z,725.63
2019-06-08T09:56:42.332Z,787.50
2019-06-08T09:57:42.383Z,967.50
2019-06-08T09:58:42.342Z,1147.50
2019-06-08T09:59:42.367Z,973.13
2019-06-08T10:00:42.366Z,1158.75
2019-06-08T10:01:42.391Z,928.13
2019-06-08T10:02:42.424Z,675.00
2019-06-08T10:03:42.420Z,635.63
2019-06-08T10:04:42.415Z,596.25
2019-06-08T10:05:42.422Z,523.13
2019-06-08T10:06:42.443Z,455.63
2019-06-08T10:07:42.453Z,444.38
2019-06-08T10:08:42.453Z,365.63
2019-06-08T10:09:43.448Z,337.50
2019-06-08T10:10:42.472Z,320.63
2019-06-08T10:11:42.488Z,337.50
2019-06-08T10:12:42.500Z,371.25
2019-06-08T10:13:43.510Z,393.75
2019-06-08T10:14:42.525Z,416.25
2019-06-08T10:15:42.529Z,399.38
2019-06-08T10:16:42.566Z,371.25
2019-06-08T10:17:42.586Z,360.00
2019-06-08T10:18:42.562Z,354.38
2019-06-08T10:19:42.572Z,315.00
2019-06-08T10:20:42.599Z,298.13
2019-06-08T10:21:43.256Z,303.75
2019-06-08T10:22:42.614Z,326.25
2019-06-08T10:23:42.644Z,416.25
2019-06-08T10:24:42.628Z,444.38
2019-06-08T10:25:42.649Z,450.00
2019-06-08T10:26:42.655Z,427.50
2019-06-08T10:27:42.658Z,376.88
2019-06-08T10:28:42.727Z,354.38
2019-06-08T10:29:42.679Z,376.88
2019-06-08T10:30:42.679Z,410.63
2019-06-08T10:31:43.904Z,427.50
2019-06-08T10:32:42.706Z,433.13
2019-06-08T10:33:42.716Z,450.00
2019-06-08T10:34:42.740Z,489.38
2019-06-08T10:35:42.747Z,466.88
2019-06-08T10:36:42.741Z,466.88
2019-06-08T10:37:42.775Z,421.88
2019-06-08T10:38:42.852Z,410.63
2019-06-08T10:39:42.804Z,405.00
2019-06-08T10:40:42.783Z,382.50
2019-06-08T10:41:42.793Z,360.00
2019-06-08T10:42:42.811Z,399.38
2019-06-08T10:43:42.822Z,444.38
2019-06-08T10:44:42.826Z,444.38
2019-06-08T10:45:42.845Z,399.38
2019-06-08T10:46:42.865Z,376.88
2019-06-08T10:47:42.854Z,354.38
2019-06-08T10:48:42.870Z,326.25
2019-06-08T10:49:42.881Z,326.25
2019-06-08T10:50:42.884Z,337.50
2019-06-08T10:51:42.939Z,343.13
2019-06-08T10:52:42.905Z,360.00
2019-06-08T10:53:48.473Z,388.13
2019-06-08T10:54:42.943Z,393.75
2019-06-08T10:55:42.938Z,416.25
2019-06-08T10:56:42.953Z,455.63
2019-06-08T10:57:42.954Z,450.00
2019-06-08T10:58:42.990Z,450.00
2019-06-08T10:59:42.984Z,523.13
2019-06-08T11:00:42.989Z,506.25
2019-06-08T11:01:43.002Z,523.13
2019-06-08T11:02:43.025Z,483.75
2019-06-08T11:03:43.106Z,495.00
2019-06-08T11:04:43.533Z,652.50
2019-06-08T11:05:43.034Z,1321.88
2019-06-08T11:06:43.082Z,663.75
2019-06-08T11:07:43.057Z,928.13
2019-06-08T11:08:43.110Z,939.38
2019-06-08T11:09:43.102Z,1974.38
2019-06-08T11:10:43.085Z,1985.63
2019-06-08T11:11:43.099Z,1080.00
2019-06-08T11:12:43.112Z,1828.13
2019-06-08T11:13:43.125Z,703.13
2019-06-08T11:14:43.133Z,742.50
2019-06-08T11:15:43.147Z,973.13
2019-06-08T11:16:43.161Z,585.00
2019-06-08T11:17:43.172Z,517.50
2019-06-08T11:18:43.197Z,450.00
2019-06-08T11:19:43.194Z,455.63
2019-06-08T11:20:43.216Z,450.00
2019-06-08T11:21:43.232Z,388.13
2019-06-08T11:22:43.238Z,371.25
2019-06-08T11:23:43.241Z,388.13
2019-06-08T11:24:43.253Z,393.75
2019-06-08T11:25:43.272Z,382.50
2019-06-08T11:26:43.278Z,393.75
2019-06-08T11:27:43.314Z,444.38
2019-06-08T11:28:43.310Z,444.38
2019-06-08T11:29:43.313Z,427.50
2019-06-08T11:30:43.328Z,438.75
2019-06-08T11:31:43.330Z,444.38
2019-06-08T11:32:43.361Z,523.13
2019-06-08T11:33:43.361Z,579.38
2019-06-08T11:34:43.370Z,708.75
2019-06-08T11:35:43.378Z,815.63
2019-06-08T11:36:43.390Z,798.75
2019-06-08T11:37:43.446Z,776.25
2019-06-08T11:38:43.412Z,765.00
2019-06-08T11:39:43.434Z,1068.75
2019-06-08T11:40:43.434Z,1946.25
2019-06-08T11:41:43.489Z,883.13
2019-06-08T11:42:43.473Z,950.63
2019-06-08T11:43:43.484Z,753.75
2019-06-08T11:44:43.486Z,731.25
2019-06-08T11:45:43.491Z,720.00
2019-06-08T11:46:43.522Z,646.88
2019-06-08T11:47:43.522Z,540.00
2019-06-08T11:48:43.570Z,528.75
2019-06-08T11:49:43.574Z,658.13
2019-06-08T11:50:43.565Z,528.75
2019-06-08T11:51:43.587Z,478.13
2019-06-08T11:52:43.584Z,450.00
2019-06-08T11:53:43.621Z,388.13
2019-06-08T11:54:43.600Z,309.38
2019-06-08T11:55:43.612Z,247.50
2019-06-08T11:56:43.626Z,225.00
2019-06-08T11:57:43.629Z,219.38
2019-06-08T11:58:43.654Z,247.50
2019-06-08T11:59:43.658Z,286.88
2019-06-08T12:00:43.669Z,348.75
2019-06-08T12:01:43.668Z,410.63
2019-06-08T12:02:43.690Z,427.50
2019-06-08T12:03:43.699Z,393.75
2019-06-08T12:04:43.735Z,348.75
2019-06-08T12:05:43.736Z,292.50
2019-06-08T12:06:43.731Z,236.25
2019-06-08T12:07:43.742Z,213.75
2019-06-08T12:08:43.753Z,213.75
2019-06-08T12:09:43.766Z,230.63
2019-06-08T12:10:43.781Z,225.00
2019-06-08T12:11:43.785Z,213.75
2019-06-08T12:12:43.792Z,202.50
2019-06-08T12:13:43.811Z,163.13
2019-06-08T12:14:43.817Z,135.00
2019-06-08T12:15:43.826Z,129.38
2019-06-08T12:16:43.838Z,135.00
2019-06-08T12:17:43.843Z,140.63
2019-06-08T12:18:43.849Z,129.38
2019-06-08T12:19:43.902Z,129.38
2019-06-08T12:20:44.075Z,135.00
2019-06-08T12:21:44.030Z,140.63
2019-06-08T12:22:44.083Z,140.63
2019-06-08T12:23:43.908Z,135.00
2019-06-08T12:24:43.957Z,140.63
2019-06-08T12:25:44.036Z,151.88
2019-06-08T12:26:44.084Z,151.88
2019-06-08T12:27:44.110Z,163.13
2019-06-08T12:28:44.178Z,168.75
2019-06-08T12:29:43.955Z,168.75
2019-06-08T12:30:43.970Z,168.75
2019-06-08T12:31:43.979Z,163.13
2019-06-08T12:32:43.994Z,168.75
2019-06-08T12:33:44.006Z,185.63
2019-06-08T12:34:44.009Z,185.63
2019-06-08T12:35:44.019Z,191.25
2019-06-08T12:36:44.026Z,202.50
2019-06-08T12:37:44.036Z,213.75
2019-06-08T12:38:44.044Z,219.38
2019-06-08T12:39:44.060Z,241.88
2019-06-08T12:40:44.067Z,241.88
2019-06-08T12:41:44.087Z,253.13
2019-06-08T12:42:44.090Z,281.25
2019-06-08T12:43:44.093Z,331.88
2019-06-08T12:44:44.103Z,444.38
2019-06-08T12:45:44.113Z,613.13
2019-06-08T12:46:44.124Z,832.50
2019-06-08T12:47:44.133Z,911.25
2019-06-08T12:48:44.155Z,736.88
2019-06-08T12:49:44.167Z,714.38
2019-06-08T12:50:44.154Z,1175.63